Time;durP1;ratioP1;P1;durP2;ratioP2;P2;SDS_P1;SDS_P2;PMS_P1;PMS_P2;Temp;Humidity;BMP_temperature;BMP_pressure;BME280_temperature;BME280_humidity;BME280_pressure;Samples;Min_cycle;Max_cycle;Signal;HPM_P1;HPM_P2
2024/04/19 00:01:58;;;;;;;19.50;12.10;;;;;;;6.78;64.55;98656.91;232428;204;153092;-52
2024/04/19 00:07:02;;;;;;;18.20;11.80;;;;;;;6.72;64.38;98656.33;231848;206;138748;-50
2024/04/19 00:12:20;;;;;;;18.40;11.60;;;;;;;6.69;64.59;98659.68;232529;207;137738;-51
2024/04/19 00:17:23;;;;;;;18.90;11.90;;;;;;;6.69;64.66;98658.77;232389;204;153092;-52
2024/04/19 00:22:26;;;;;;;17.90;12.00;;;;;;;6.70;64.56;98655.56;232414;203;137904;-52
2024/04/19 00:27:29;;;;;;;18.80;11.40;;;;;;;6.69;64.56;98653.69;232418;204;140254;-53
2024/04/19 00:32:32;;;;;;;18.50;12.00;;;;;;;6.62;64.61;98654.70;232423;203;153284;-50
2024/04/19 00:37:35;;;;;;;19.10;12.00;;;;;;;6.62;64.69;98658.40;232406;206;138481;-52
2024/04/19 00:42:59;;;;;;;18.40;11.80;;;;;;;6.58;64.55;98653.17;232526;203;138372;-53
2024/04/19 00:48:12;;;;;;;19.50;12.30;;;;;;;6.56;64.81;98653.81;232373;204;153351;-52
2024/04/19 00:53:31;;;;;;;19.00;11.90;;;;;;;6.47;65.11;98655.67;232396;204;138000;-50
2024/04/19 00:58:54;;;;;;;18.70;11.50;;;;;;;6.40;65.30;98651.47;232512;206;138720;-50
2024/04/19 01:03:57;;;;;;;19.60;11.70;;;;;;;6.31;65.75;98652.60;232429;203;153810;-50
2024/04/19 01:09:01;;;;;;;19.10;11.80;;;;;;;6.22;66.06;98651.84;232418;203;139529;-53
2024/04/19 01:14:04;;;;;;;19.20;11.80;;;;;;;6.21;66.08;98650.16;232477;204;137648;-51
2024/04/19 01:19:07;;;;;;;18.10;11.70;;;;;;;6.20;66.08;98647.36;232450;207;154117;-51
2024/04/19 01:24:26;;;;;;;17.10;11.90;;;;;;;6.19;66.28;98647.61;232492;203;137845;-49
2024/04/19 01:29:29;;;;;;;19.00;10.90;;;;;;;6.17;66.59;98647.18;232451;203;139155;-51
2024/04/19 01:34:32;;;;;;;16.90;10.80;;;;;;;6.24;66.41;98649.30;232278;207;154200;-48
2024/04/19 01:39:36;;;;;;;18.90;11.40;;;;;;;6.31;66.33;98646.27;232388;204;138925;-50
2024/04/19 01:44:39;;;;;;;17.30;11.00;;;;;;;6.42;66.20;98646.77;232414;207;137276;-51
2024/04/19 01:49:42;;;;;;;18.60;11.00;;;;;;;6.47;65.85;98641.94;232420;207;153770;-51
2024/04/19 01:54:45;;;;;;;17.10;11.10;;;;;;;6.48;65.72;98646.98;232556;204;138020;-53
2024/04/19 01:59:48;;;;;;;18.50;12.00;;;;;;;6.49;65.53;98642.02;232425;206;137789;-49
2024/04/19 02:04:51;;;;;;;19.20;10.90;;;;;;;6.45;65.50;98644.15;232421;203;154458;-49
2024/04/19 02:09:53;;;;;;;16.90;10.80;;;;;;;6.35;65.44;98639.91;232462;206;138339;-49
2024/04/19 02:14:56;;;;;;;17.90;11.20;;;;;;;6.25;65.60;98641.30;232485;203;138416;-50
2024/04/19 02:19:59;;;;;;;15.80;10.60;;;;;;;6.18;65.58;98641.68;232430;204;153186;-50
2024/04/19 02:25:03;;;;;;;20.60;11.80;;;;;;;6.07;65.70;98642.38;232684;202;137291;-52
2024/04/19 02:35:28;;;;;;;20.70;11.70;;;;;;;5.87;66.06;98645.98;232447;206;153978;-53
2024/04/19 02:40:31;;;;;;;19.80;12.20;;;;;;;5.82;66.11;98638.48;232439;203;137355;-51
2024/04/19 02:45:41;;;;;;;19.20;12.40;;;;;;;5.72;66.41;98637.38;232397;207;141123;-51
2024/04/19 02:50:58;;;;;;;22.20;13.50;;;;;;;5.60;66.62;98639.41;232387;207;153303;-51
2024/04/19 02:56:05;;;;;;;19.20;13.00;;;;;;;5.54;66.89;98636.50;232427;204;138536;-52
2024/04/19 03:01:08;;;;;;;19.80;12.40;;;;;;;5.55;66.75;98638.24;232601;204;137455;-52
2024/04/19 03:06:11;;;;;;;18.80;12.60;;;;;;;5.59;66.73;98639.59;232308;202;153443;-52
2024/04/19 03:11:14;;;;;;;24.20;13.40;;;;;;;5.59;66.81;98636.63;232489;204;137525;-50
2024/04/19 03:16:18;;;;;;;22.50;14.20;;;;;;;5.60;66.58;98639.20;232459;206;137511;-54
2024/04/19 03:21:22;;;;;;;20.50;14.40;;;;;;;5.55;66.59;98637.35;232467;206;153780;-51
2024/04/19 03:26:25;;;;;;;22.30;15.40;;;;;;;5.48;66.95;98637.16;232413;206;137135;-51
2024/04/19 03:31:28;;;;;;;23.00;15.00;;;;;;;5.43;66.77;98638.59;232401;204;138876;-51
2024/04/19 03:36:31;;;;;;;27.70;16.90;;;;;;;5.32;67.19;98641.92;232585;206;153424;-50
2024/04/19 03:41:34;;;;;;;29.00;17.40;;;;;;;5.29;67.42;98640.88;232346;203;139061;-52
2024/04/19 03:46:37;;;;;;;27.40;18.10;;;;;;;5.24;67.35;98631.95;232329;207;137967;-52
2024/04/19 03:51:40;;;;;;;30.50;19.20;;;;;;;5.17;67.67;98631.20;232337;204;153272;-54
2024/04/19 03:56:43;;;;;;;17.70;11.80;;;;;;;5.09;67.68;98636.68;232393;203;138050;-49
2024/04/19 04:01:52;;;;;;;34.80;23.20;;;;;;;5.28;70.88;98639.14;232526;206;138242;-51
2024/04/19 04:06:55;;;;;;;27.90;19.10;;;;;;;5.24;68.31;98633.34;232472;204;153411;-51
2024/04/19 04:11:58;;;;;;;90.00;65.20;;;;;;;5.22;68.25;98639.77;232424;203;138690;-52
2024/04/19 04:17:01;;;;;;;31.80;21.30;;;;;;;5.28;68.13;98644.10;232434;207;137189;-51
2024/04/19 04:22:04;;;;;;;53.80;38.60;;;;;;;5.31;67.99;98639.73;232361;204;153185;-51
2024/04/19 04:27:07;;;;;;;29.60;19.80;;;;;;;5.36;67.84;98639.31;232395;206;137812;-51
2024/04/19 04:32:10;;;;;;;30.60;19.70;;;;;;;5.39;67.27;98639.67;232407;207;139590;-50
2024/04/19 04:37:13;;;;;;;29.60;18.10;;;;;;;5.37;67.31;98631.15;232388;206;153064;-49
2024/04/19 04:42:16;;;;;;;30.20;19.00;;;;;;;5.36;67.30;98628.04;232456;207;137373;-50
2024/04/19 04:47:19;;;;;;;27.90;19.20;;;;;;;5.35;67.18;98629.30;232363;203;138698;-49
2024/04/19 04:52:24;;;;;;;31.00;18.60;;;;;;;5.35;67.38;98624.95;232316;204;153610;-51
2024/04/19 04:57:27;;;;;;;26.10;17.90;;;;;;;5.39;67.42;98617.00;232404;200;137859;-50
2024/04/19 05:02:30;;;;;;;29.40;17.60;;;;;;;5.43;67.36;98617.67;232533;203;138281;-51
2024/04/19 05:07:34;;;;;;;22.50;16.20;;;;;;;5.56;67.34;98609.33;232382;204;153426;-52
2024/04/19 05:12:36;;;;;;;40.80;29.20;;;;;;;5.77;67.63;98606.34;232536;207;138627;-52
2024/04/19 05:17:39;;;;;;;21.90;15.10;;;;;;;5.92;67.34;98604.06;232492;206;141075;-55
2024/04/19 05:22:42;;;;;;;24.20;15.50;;;;;;;6.03;66.65;98605.10;232450;202;152954;-49
2024/04/19 05:27:45;;;;;;;23.40;12.70;;;;;;;6.08;66.38;98607.80;232413;206;138462;-51
2024/04/19 05:32:48;;;;;;;20.30;12.40;;;;;;;6.07;66.18;98608.55;232471;206;140646;-50
2024/04/19 05:37:55;;;;;;;18.60;11.90;;;;;;;6.12;66.08;98601.81;232327;203;153378;-51
2024/04/19 05:42:58;;;;;;;16.20;10.40;;;;;;;6.16;66.06;98592.79;232600;204;138012;-50
2024/04/19 05:48:01;;;;;;;15.40;9.80;;;;;;;6.18;65.86;98592.35;232359;204;139460;-50
2024/04/19 05:53:04;;;;;;;16.20;8.80;;;;;;;6.14;65.50;98596.39;232417;200;153761;-52
2024/04/19 05:58:08;;;;;;;14.90;8.60;;;;;;;6.12;65.63;98597.05;232428;204;137282;-51
2024/04/19 06:03:11;;;;;;;17.60;8.50;;;;;;;6.20;65.74;98601.94;232435;207;137406;-52
2024/04/19 06:08:14;;;;;;;15.20;8.00;;;;;;;6.28;65.54;98602.91;232414;203;153316;-52
2024/04/19 06:13:17;;;;;;;10.20;6.60;;;;;;;6.39;65.15;98595.31;232194;207;139864;-54
2024/04/19 06:18:20;;;;;;;135.20;94.80;;;;;;;6.53;65.04;98590.52;232495;203;138636;-52
2024/04/19 06:23:23;;;;;;;15.30;8.20;;;;;;;6.74;64.62;98583.23;232348;203;156199;-52
2024/04/19 06:28:26;;;;;;;12.50;6.70;;;;;;;6.96;63.96;98582.75;232372;204;137980;-56
2024/04/19 06:33:29;;;;;;;11.90;5.90;;;;;;;7.11;63.45;98581.21;232353;204;138169;-54
2024/04/19 06:38:32;;;;;;;12.20;5.60;;;;;;;7.22;63.18;98575.83;232390;203;154733;-53
2024/04/19 06:43:35;;;;;;;11.20;5.30;;;;;;;7.34;62.08;98568.64;232275;204;142033;-54
2024/04/19 06:48:38;;;;;;;9.60;5.00;;;;;;;7.45;61.50;98563.09;232632;206;137329;-53
2024/04/19 06:53:41;;;;;;;6.60;4.00;;;;;;;7.54;60.25;98558.15;232355;203;154472;-54
2024/04/19 06:58:48;;;;;;;63.30;48.40;;;;;;;7.56;59.93;98549.54;232247;204;138204;-53
2024/04/19 07:03:52;;;;;;;8.80;4.50;;;;;;;7.68;60.62;98545.70;232536;204;137739;-54
2024/04/19 07:08:55;;;;;;;4.60;3.10;;;;;;;7.81;58.89;98547.19;232334;207;153336;-53
2024/04/19 07:13:58;;;;;;;8.70;3.00;;;;;;;7.88;58.19;98540.27;232328;203;137321;-54
2024/04/19 07:19:01;;;;;;;10.30;3.80;;;;;;;7.99;58.02;98536.82;232583;202;137634;-54
2024/04/19 07:24:04;;;;;;;47.60;32.60;;;;;;;8.08;57.81;98533.45;232352;204;154700;-54
2024/04/19 07:29:07;;;;;;;6.60;3.50;;;;;;;8.21;57.55;98524.88;232343;206;141989;-52
2024/04/19 07:34:10;;;;;;;7.50;2.80;;;;;;;8.37;57.17;98524.63;232437;207;138935;-53
2024/04/19 07:39:13;;;;;;;5.80;2.90;;;;;;;8.52;56.39;98523.35;232405;203;153279;-52
2024/04/19 07:44:16;;;;;;;6.50;2.60;;;;;;;8.69;55.39;98515.21;232327;204;137427;-53
2024/04/19 07:49:19;;;;;;;3.90;1.80;;;;;;;8.88;54.70;98512.98;232400;204;138271;-52
2024/04/19 07:54:23;;;;;;;4.20;1.90;;;;;;;9.02;52.50;98512.94;232657;202;153188;-54
2024/04/19 07:59:27;;;;;;;3.20;1.70;;;;;;;9.13;51.79;98507.64;232443;207;137353;-53
2024/04/19 08:04:30;;;;;;;3.60;1.90;;;;;;;9.26;51.15;98500.81;232484;199;138405;-54
2024/04/19 08:09:33;;;;;;;3.40;2.00;;;;;;;9.36;50.99;98490.77;232413;203;153319;-52
2024/04/19 08:14:36;;;;;;;6.20;4.10;;;;;;;9.53;51.30;98487.13;232327;199;137240;-53
2024/04/19 08:19:40;;;;;;;6.00;2.90;;;;;;;9.80;50.06;98472.59;232407;207;136941;-53
2024/04/19 08:24:42;;;;;;;2.40;1.90;;;;;;;10.00;48.43;98472.95;232594;203;153719;-53
2024/04/19 08:29:45;;;;;;;4.10;2.30;;;;;;;10.12;48.40;98460.79;232364;207;138243;-53
2024/04/19 08:34:54;;;;;;;3.10;1.80;;;;;;;10.15;47.85;98458.59;232344;207;138322;-52
2024/04/19 08:39:57;;;;;;;4.30;1.90;;;;;;;10.08;47.61;98458.39;232324;206;153199;-52
2024/04/19 08:45:04;;;;;;;12.50;7.90;;;;;;;10.05;48.32;98450.84;232273;203;137598;-53
2024/04/19 08:50:07;;;;;;;4.40;2.20;;;;;;;10.11;47.47;98450.42;232506;206;137457;-53
2024/04/19 08:55:12;;;;;;;3.50;1.90;;;;;;;10.13;47.19;98446.16;232417;203;153812;-54
2024/04/19 09:00:15;;;;;;;5.00;2.30;;;;;;;10.12;47.28;98443.08;232393;204;137173;-54
2024/04/19 09:05:18;;;;;;;5.40;1.90;;;;;;;10.17;46.68;98445.69;232352;206;137444;-53
2024/04/19 09:10:21;;;;;;;2.70;1.90;;;;;;;10.30;46.13;98436.14;232331;203;153277;-53
2024/04/19 09:15:27;;;;;;;3.90;1.70;;;;;;;10.47;45.44;98435.88;232370;207;138454;-50
2024/04/19 09:20:31;;;;;;;4.60;2.10;;;;;;;10.63;45.02;98432.75;232390;202;137285;-54
2024/04/19 09:25:34;;;;;;;3.40;1.60;;;;;;;10.77;44.81;98429.94;232365;203;154844;-53
2024/04/19 09:30:40;;;;;;;3.30;1.80;;;;;;;10.79;43.86;98418.80;232604;199;137535;-53
2024/04/19 09:35:43;;;;;;;4.50;1.50;;;;;;;10.73;43.59;98423.02;232422;206;137646;-52
2024/04/19 09:40:47;;;;;;;4.10;1.50;;;;;;;10.72;43.97;98417.18;232397;203;153431;-53
2024/04/19 09:45:56;;;;;;;3.70;1.70;;;;;;;10.78;43.24;98409.30;232279;204;138711;-54
2024/04/19 09:51:04;;;;;;;2.80;1.20;;;;;;;10.92;42.94;98399.77;232348;207;138457;-54
2024/04/19 09:56:13;;;;;;;2.50;1.30;;;;;;;11.13;41.83;98390.05;232380;207;153972;-53
2024/04/19 10:01:17;;;;;;;2.90;1.20;;;;;;;11.26;40.42;98374.88;232469;207;137592;-53
2024/04/19 10:06:23;;;;;;;2.80;1.60;;;;;;;11.48;39.56;98367.27;232453;206;136867;-53
2024/04/19 10:11:26;;;;;;;3.20;1.30;;;;;;;11.78;38.95;98358.64;232422;203;153809;-52
2024/04/19 10:16:30;;;;;;;2.90;1.40;;;;;;;11.94;38.12;98344.95;232264;204;138175;-53
2024/04/19 10:21:36;;;;;;;4.30;1.40;;;;;;;12.16;39.36;98332.17;232256;204;137986;-52
2024/04/19 10:26:39;;;;;;;3.80;1.30;;;;;;;12.40;38.64;98329.40;232359;203;153194;-54
2024/04/19 10:31:50;;;;;;;3.50;1.20;;;;;;;12.34;37.48;98331.10;232438;206;137296;-54
2024/04/19 10:36:54;;;;;;;2.10;1.40;;;;;;;12.42;38.14;98313.32;232464;207;139400;-53
2024/04/19 10:41:56;;;;;;;2.00;1.30;;;;;;;12.51;37.91;98306.94;232377;203;153772;-54
2024/04/19 10:47:00;;;;;;;3.30;1.30;;;;;;;12.69;38.15;98291.34;232335;204;137246;-52
2024/04/19 10:52:04;;;;;;;7.80;1.40;;;;;;;12.68;38.28;98283.45;232324;204;138300;-52
2024/04/19 10:57:07;;;;;;;3.90;1.50;;;;;;;12.56;37.43;98294.58;232317;200;154068;-53
2024/04/19 11:02:12;;;;;;;3.50;1.70;;;;;;;12.31;37.46;98286.68;232384;206;137219;-53
2024/04/19 11:07:15;;;;;;;3.60;1.20;;;;;;;12.12;38.24;98291.59;232550;202;142910;-53
2024/04/19 11:12:18;;;;;;;5.10;1.30;;;;;;;11.95;39.21;98275.93;232401;207;153375;-53
2024/04/19 11:17:21;;;;;;;3.80;1.50;;;;;;;11.90;40.24;98267.42;232195;204;138438;-52
2024/04/19 11:22:24;;;;;;;126.80;85.20;;;;;;;11.92;40.32;98251.23;232337;204;137524;-53
2024/04/19 11:27:30;;;;;;;5.80;4.00;;;;;;;12.05;40.25;98237.55;232232;203;153007;-54
2024/04/19 11:32:34;;;;;;;35.10;24.40;;;;;;;12.50;39.39;98221.10;232322;204;137092;-53
2024/04/19 11:37:37;;;;;;;5.60;1.80;;;;;;;13.04;38.66;98213.12;232394;204;137875;-55
2024/04/19 11:42:41;;;;;;;2.80;1.60;;;;;;;13.38;37.53;98206.45;232560;203;153475;-55
2024/04/19 11:47:45;;;;;;;5.20;1.30;;;;;;;13.23;36.90;98203.50;232383;207;137128;-55
2024/04/19 11:52:48;;;;;;;2.30;1.50;;;;;;;13.14;38.02;98195.89;232485;203;138091;-55
2024/04/19 11:57:52;;;;;;;2.70;1.30;;;;;;;12.97;37.75;98195.41;232102;207;153188;-54
2024/04/19 12:02:58;;;;;;;4.70;1.60;;;;;;;13.07;38.39;98187.29;232353;206;138791;-55
2024/04/19 12:08:02;;;;;;;3.90;1.50;;;;;;;13.42;37.85;98184.94;232293;204;138370;-53
2024/04/19 12:13:08;;;;;;;2.80;1.40;;;;;;;13.85;37.16;98178.11;232541;203;153204;-55
2024/04/19 12:18:34;;;;;;;5.60;1.40;;;;;;;14.14;35.45;98172.31;232474;206;138180;-54
2024/04/19 12:23:38;;;;;;;3.10;1.30;;;;;;;14.23;34.92;98163.07;232353;203;139045;-53
2024/04/19 12:28:42;;;;;;;2.50;1.40;;;;;;;14.19;34.87;98157.36;232339;204;153306;-55
2024/04/19 12:33:57;;;;;;;3.20;1.30;;;;;;;14.27;34.38;98157.05;232340;203;141862;-55
2024/04/19 12:39:00;;;;;;;6.20;1.70;;;;;;;14.29;34.49;98145.95;232341;202;137862;-54
2024/04/19 12:44:03;;;;;;;4.20;1.10;;;;;;;14.32;34.93;98138.59;232187;206;153508;-54
2024/04/19 12:49:07;;;;;;;4.60;1.60;;;;;;;14.22;34.47;98134.48;232383;203;154124;-52
2024/04/19 12:54:11;;;;;;;3.50;1.60;;;;;;;14.10;34.54;98131.13;232396;199;138239;-54
2024/04/19 12:59:14;;;;;;;3.20;1.30;;;;;;;14.05;34.74;98124.27;232342;204;153062;-54
2024/04/19 13:04:19;;;;;;;4.60;1.50;;;;;;;13.86;34.80;98115.11;232400;207;138296;-55
2024/04/19 13:09:22;;;;;;;6.00;1.30;;;;;;;13.57;34.98;98119.86;231856;203;138767;-53
2024/04/19 13:14:25;;;;;;;4.30;1.80;;;;;;;13.26;37.31;98129.66;232397;206;153018;-53
2024/04/19 13:19:28;;;;;;;7.20;1.80;;;;;;;12.98;40.35;98139.19;232415;204;137411;-54
2024/04/19 13:24:31;;;;;;;7.20;1.70;;;;;;;12.74;41.83;98133.66;232495;206;142183;-53
2024/04/19 13:29:35;;;;;;;3.70;1.60;;;;;;;12.59;43.58;98132.05;232390;202;152959;-54
2024/04/19 13:34:38;;;;;;;4.50;2.30;;;;;;;12.65;45.07;98122.16;232414;206;138406;-55
2024/04/19 13:39:40;;;;;;;3.10;1.00;;;;;;;12.78;46.11;98120.30;232401;206;138973;-55
2024/04/19 13:44:43;;;;;;;3.50;1.10;;;;;;;13.17;43.95;98098.09;232420;206;153141;-55
2024/04/19 13:49:47;;;;;;;6.90;1.80;;;;;;;13.54;42.05;98084.46;232445;203;138475;-55
2024/04/19 13:54:49;;;;;;;2.70;1.30;;;;;;;13.81;41.24;98077.59;232444;206;137994;-55
2024/04/19 13:59:53;;;;;;;2.50;1.60;;;;;;;14.02;39.99;98074.38;232323;206;154851;-54
2024/04/19 14:04:58;;;;;;;2.40;1.40;;;;;;;14.12;39.17;98072.04;232380;203;137642;-54
2024/04/19 14:10:01;;;;;;;3.20;1.40;;;;;;;14.15;38.72;98072.48;232329;200;142206;-53
2024/04/19 14:15:04;;;;;;;3.50;1.50;;;;;;;14.01;38.77;98060.06;232240;207;153391;-53
2024/04/19 14:20:08;;;;;;;1.60;1.20;;;;;;;13.96;39.30;98057.84;232275;206;140745;-54
2024/04/19 14:25:12;;;;;;;2.40;1.30;;;;;;;13.95;39.27;98050.92;232420;206;139261;-55
2024/04/19 14:30:15;;;;;;;4.60;1.50;;;;;;;13.92;39.28;98042.30;232205;198;153195;-54
2024/04/19 14:35:19;;;;;;;3.80;1.40;;;;;;;13.95;39.27;98035.08;232269;203;138173;-54
2024/04/19 14:40:22;;;;;;;2.70;1.30;;;;;;;13.98;38.48;98028.63;232342;206;137965;-55
2024/04/19 14:45:25;;;;;;;2.10;1.40;;;;;;;13.91;37.43;98023.32;232271;205;153323;-53
2024/04/19 14:50:28;;;;;;;3.30;1.50;;;;;;;13.76;37.19;98013.48;232264;202;138442;-55
2024/04/19 14:55:31;;;;;;;2.50;1.50;;;;;;;13.58;37.81;98012.61;232269;203;137649;-54
2024/04/19 15:00:35;;;;;;;2.70;1.20;;;;;;;13.49;38.34;98008.84;232425;203;154940;-53
2024/04/19 15:05:38;;;;;;;4.10;1.70;;;;;;;13.38;38.16;98005.02;232291;203;138870;-55
2024/04/19 15:10:41;;;;;;;2.70;1.30;;;;;;;13.25;38.08;97994.05;232298;203;139013;-55
2024/04/19 15:15:44;;;;;;;4.30;1.50;;;;;;;13.18;38.20;97984.01;232377;206;153288;-54
2024/04/19 15:20:48;;;;;;;2.50;1.50;;;;;;;13.12;38.67;97974.01;232371;203;137705;-55
2024/04/19 15:25:50;;;;;;;2.40;1.20;;;;;;;13.04;38.45;97972.23;232361;204;137650;-55
2024/04/19 15:30:53;;;;;;;3.10;1.50;;;;;;;12.98;38.51;97977.51;232463;206;154119;-53
2024/04/19 15:35:57;;;;;;;4.60;1.60;;;;;;;12.91;38.33;97976.57;232440;203;138059;-54
2024/04/19 15:41:02;;;;;;;4.80;1.30;;;;;;;12.91;38.19;97970.52;232346;203;141329;-55
2024/04/19 15:46:05;;;;;;;2.30;1.40;;;;;;;12.88;38.05;97965.82;232303;199;153945;-54
2024/04/19 15:51:08;;;;;;;3.00;1.50;;;;;;;12.84;38.09;97968.48;232335;206;137189;-54
2024/04/19 15:56:11;;;;;;;2.50;1.50;;;;;;;12.80;37.99;97966.86;232388;203;140101;-53
2024/04/19 16:01:14;;;;;;;3.10;1.50;;;;;;;12.80;37.95;97963.66;232496;207;153362;-53
2024/04/19 16:06:17;;;;;;;2.60;1.50;;;;;;;12.76;37.56;97956.92;232272;207;138950;-55
2024/04/19 16:11:20;;;;;;;5.40;1.60;;;;;;;12.71;37.93;97954.00;232305;206;138479;-55
2024/04/19 16:16:23;;;;;;;4.50;1.50;;;;;;;12.66;38.21;97954.06;232286;206;153095;-55
2024/04/19 16:21:26;;;;;;;5.10;1.70;;;;;;;12.65;38.16;97947.34;232259;207;138109;-55
2024/04/19 16:26:29;;;;;;;4.00;1.70;;;;;;;12.72;38.51;97940.92;232350;206;137915;-55
2024/04/19 16:31:32;;;;;;;7.10;2.10;;;;;;;12.72;37.95;97936.66;231967;207;155021;-54
2024/04/19 16:36:34;;;;;;;5.40;1.40;;;;;;;12.71;38.03;97933.31;232438;203;138250;-55
2024/04/19 16:41:37;;;;;;;4.60;1.70;;;;;;;12.67;37.87;97932.45;232350;203;138411;-55
2024/04/19 16:46:40;;;;;;;3.60;1.70;;;;;;;12.64;37.96;97934.13;232377;206;153208;-55
2024/04/19 16:51:44;;;;;;;2.80;1.50;;;;;;;12.58;37.49;97933.23;232188;203;137349;-53
2024/04/19 16:56:47;;;;;;;6.00;1.50;;;;;;;12.50;37.25;97928.91;232351;206;138205;-55
2024/04/19 17:01:50;;;;;;;5.30;1.60;;;;;;;12.45;37.47;97938.77;232297;199;153317;-54
2024/04/19 17:06:53;;;;;;;4.10;1.70;;;;;;;12.42;37.77;97937.33;232457;203;137620;-53
2024/04/19 17:12:02;;;;;;;4.90;1.70;;;;;;;12.41;37.95;97929.08;232236;207;141366;-54
2024/04/19 17:17:06;;;;;;;2.70;1.50;;;;;;;12.38;38.00;97931.56;232323;200;153984;-54
2024/04/19 17:22:09;;;;;;;2.00;1.50;;;;;;;12.36;38.05;97928.23;232289;204;138298;-55
2024/04/19 17:27:15;;;;;;;3.00;1.50;;;;;;;12.28;37.99;97933.15;232330;206;137428;-53
2024/04/19 17:32:18;;;;;;;;;;;;;;;12.15;37.41;97935.36;232354;200;154758;-55
2024/04/19 17:37:21;;;;;;;5.00;1.70;;;;;;;12.03;37.81;97938.70;232451;203;138007;-54
2024/04/19 17:42:24;;;;;;;4.80;2.00;;;;;;;11.97;38.15;97947.20;232247;206;137362;-51
2024/04/19 17:47:29;;;;;;;4.20;1.50;;;;;;;11.87;38.54;97956.95;232144;206;158949;-54
2024/04/19 17:52:33;;;;;;;2.00;1.40;;;;;;;11.72;38.97;97961.55;232249;204;139286;-53
2024/04/19 17:57:36;;;;;;;3.40;1.30;;;;;;;11.56;39.39;97962.14;232302;204;138227;-54
2024/04/19 18:02:39;;;;;;;2.60;1.50;;;;;;;11.48;39.82;97960.05;232271;206;153694;-54
2024/04/19 18:07:42;;;;;;;2.70;1.20;;;;;;;11.35;40.20;97965.00;232179;204;137473;-56
2024/04/19 18:12:46;;;;;;;3.80;1.70;;;;;;;11.22;40.73;97965.95;232407;204;140320;-53
2024/04/19 18:17:49;;;;;;;2.00;1.40;;;;;;;11.14;41.15;97968.30;232153;203;153355;-53
2024/04/19 18:22:53;;;;;;;5.90;2.10;;;;;;;11.12;41.53;97970.80;232214;204;137901;-55
2024/04/19 18:27:57;;;;;;;4.20;1.70;;;;;;;11.08;41.79;97968.83;232096;204;138241;-54
2024/04/19 18:33:03;;;;;;;2.80;1.50;;;;;;;11.00;42.05;97965.38;232241;206;153913;-53
2024/04/19 18:38:06;;;;;;;3.50;1.60;;;;;;;10.94;42.40;97966.79;232244;204;137787;-54
2024/04/19 18:43:09;;;;;;;4.40;1.80;;;;;;;10.87;42.63;97967.46;232444;206;137854;-54
2024/04/19 18:48:13;;;;;;;5.70;2.20;;;;;;;10.80;43.18;97977.95;232163;203;154771;-53
2024/04/19 18:53:18;;;;;;;3.60;1.70;;;;;;;10.72;43.78;97987.20;232297;203;138407;-55
2024/04/19 18:58:21;;;;;;;3.20;1.90;;;;;;;10.64;44.14;97984.42;232260;203;137996;-53
2024/04/19 19:03:24;;;;;;;3.90;2.00;;;;;;;10.54;44.74;97980.61;232275;204;153810;-53
2024/04/19 19:08:27;;;;;;;3.70;2.20;;;;;;;10.46;44.94;97977.88;232015;202;138648;-52
2024/04/19 19:13:35;;;;;;;3.70;2.20;;;;;;;10.43;45.21;97975.08;232462;199;138069;-53
2024/04/19 19:18:37;;;;;;;4.70;2.10;;;;;;;10.36;45.51;97965.67;232566;202;153179;-53
2024/04/19 19:23:41;;;;;;;3.30;2.20;;;;;;;10.32;45.63;97969.70;232280;205;138226;-52
2024/04/19 19:28:47;;;;;;;6.20;2.50;;;;;;;10.22;45.88;97963.41;232352;203;138190;-53
2024/04/19 19:33:50;;;;;;;3.50;2.20;;;;;;;10.17;46.23;97959.31;232351;206;153751;-54
2024/04/19 19:38:53;;;;;;;4.20;2.10;;;;;;;10.11;46.50;97955.90;232319;202;138308;-54
2024/04/19 19:44:00;;;;;;;3.80;2.00;;;;;;;10.07;46.54;97948.41;232424;203;137873;-56
2024/04/19 19:49:03;;;;;;;27.00;20.80;;;;;;;10.09;47.16;97944.38;232514;203;154420;-52
2024/04/19 19:54:08;;;;;;;4.40;3.00;;;;;;;10.17;46.95;97938.80;232342;206;138318;-54
2024/04/19 20:05:45;;;;;;;5.40;2.50;;;;;;;10.12;46.94;97937.41;232375;202;138938;-53
2024/04/19 20:09:56;;;;;;;4.90;2.80;;;;;;;9.96;47.30;97939.32;232327;203;138786;-54
2024/04/19 20:15:00;;;;;;;4.60;2.30;;;;;;;9.94;47.40;97941.95;232338;203;137450;-54
2024/04/19 20:20:04;;;;;;;14.60;10.90;;;;;;;9.98;47.41;97941.89;232120;203;153354;-54
2024/04/19 20:25:08;;;;;;;10.40;7.30;;;;;;;10.08;47.97;97936.15;232483;206;140422;-54
2024/04/19 20:30:11;;;;;;;5.00;2.60;;;;;;;10.17;47.28;97931.66;232350;204;137719;-54
2024/04/19 20:35:13;;;;;;;4.30;2.40;;;;;;;10.16;47.24;97926.98;232284;204;153481;-54
2024/04/19 20:40:16;;;;;;;7.50;2.50;;;;;;;10.14;47.29;97930.65;232327;206;138353;-54
2024/04/19 20:45:19;;;;;;;4.00;2.30;;;;;;;10.13;47.44;97930.04;232404;199;138432;-54
2024/04/19 20:50:23;;;;;;;550.70;430.90;;;;;;;10.11;48.10;97928.97;232387;203;153266;-54
2024/04/19 20:55:26;;;;;;;20.60;13.00;;;;;;;10.24;48.87;97933.64;232431;204;138994;-52
2024/04/19 21:00:29;;;;;;;6.00;3.40;;;;;;;10.34;47.74;97939.46;232574;203;138105;-53
2024/04/19 21:05:35;;;;;;;3.30;2.40;;;;;;;10.31;47.61;97938.30;232418;207;153307;-53
2024/04/19 21:10:38;;;;;;;4.20;2.30;;;;;;;10.24;47.75;97935.27;232468;206;138196;-54
2024/04/19 21:15:41;;;;;;;6.30;2.40;;;;;;;10.17;47.84;97931.51;232468;199;137958;-55
2024/04/19 21:20:44;;;;;;;6.10;2.20;;;;;;;10.13;48.13;97932.00;232434;206;153310;-54
2024/04/19 21:25:47;;;;;;;4.00;2.10;;;;;;;10.12;48.06;97930.14;232430;203;137687;-54
2024/04/19 21:31:03;;;;;;;4.30;2.20;;;;;;;10.13;48.16;97929.02;232595;203;138278;-54
2024/04/19 21:36:09;;;;;;;6.40;2.20;;;;;;;10.15;48.28;97931.88;232433;203;153784;-54
2024/04/19 21:41:12;;;;;;;;;;;;;;;10.14;48.58;97928.88;232464;206;137275;-54
2024/04/19 21:46:15;;;;;;;3.70;1.90;;;;;;;10.13;49.24;97929.20;232475;203;138107;-54
2024/04/19 21:51:18;;;;;;;2.80;2.00;;;;;;;10.08;50.15;97928.70;232438;206;154378;-55
2024/04/19 21:56:21;;;;;;;4.00;2.00;;;;;;;10.01;51.01;97930.64;232437;204;137788;-54
2024/04/19 22:01:24;;;;;;;2.60;1.70;;;;;;;9.96;51.48;97924.33;232539;204;138142;-54
2024/04/19 22:06:28;;;;;;;4.30;2.00;;;;;;;9.86;52.23;97924.02;232517;203;153434;-54
2024/04/19 22:11:31;;;;;;;2.60;1.90;;;;;;;9.82;52.76;97924.85;232398;207;137059;-54
2024/04/19 22:16:34;;;;;;;2.30;1.60;;;;;;;9.75;53.23;97924.34;232593;203;137339;-54
2024/04/19 22:21:36;;;;;;;2.80;1.40;;;;;;;9.68;53.74;97918.48;232545;206;153240;-54
2024/04/19 22:26:39;;;;;;;2.60;1.70;;;;;;;9.63;54.09;97911.43;232641;206;138294;-54
2024/04/19 22:31:43;;;;;;;2.50;1.60;;;;;;;9.59;54.54;97907.30;232644;206;138001;-54
2024/04/19 22:36:45;;;;;;;2.50;1.60;;;;;;;9.59;54.82;97912.11;232678;206;153255;-52
2024/04/19 22:41:48;;;;;;;3.20;1.50;;;;;;;9.57;54.93;97909.77;232503;204;138436;-50
2024/04/19 22:46:51;;;;;;;2.00;1.20;;;;;;;9.55;55.13;97907.61;232633;203;136801;-53
2024/04/19 22:51:54;;;;;;;3.00;1.60;;;;;;;9.54;55.06;97903.77;232561;203;152294;-54
2024/04/19 22:56:58;;;;;;;2.60;1.60;;;;;;;9.53;55.43;97901.23;232659;203;137986;-53
2024/04/19 23:02:01;;;;;;;2.10;1.60;;;;;;;9.51;55.59;97902.98;232576;206;138562;-52
2024/04/19 23:07:04;;;;;;;3.70;1.60;;;;;;;9.47;55.97;97900.42;232797;203;153108;-51
2024/04/19 23:12:07;;;;;;;2.30;1.60;;;;;;;9.46;56.51;97901.75;232532;200;138889;-54
2024/04/19 23:17:10;;;;;;;2.40;1.40;;;;;;;9.42;56.56;97898.48;232469;204;137065;-53
2024/04/19 23:22:13;;;;;;;1.30;1.10;;;;;;;9.41;56.68;97898.02;232655;206;153062;-54
2024/04/19 23:27:16;;;;;;;2.20;1.50;;;;;;;9.42;56.64;97897.77;232519;207;138233;-53
2024/04/19 23:32:19;;;;;;;1.70;1.10;;;;;;;9.44;56.57;97897.63;232676;204;138203;-54
2024/04/19 23:37:22;;;;;;;2.10;1.30;;;;;;;9.46;56.40;97890.55;232747;203;153876;-54
2024/04/19 23:42:25;;;;;;;1.20;1.00;;;;;;;9.47;56.37;97891.02;232508;203;137048;-55